Time;durP1;ratioP1;P1;durP2;ratioP2;P2;SDS_P1;SDS_P2;PMS_P1;PMS_P2;Temp;Humidity;BMP_temperature;BMP_pressure;BME280_temperature;BME280_humidity;BME280_pressure;Samples;Min_cycle;Max_cycle;Signal;HPM_P1;HPM_P2
2021/11/17 02:25:55;;;;;;;5.75;1.42;;;22.00;99.90;;;;;;5033938;28;20386;-69
2021/11/17 02:28:34;;;;;;;6.78;1.65;;;21.90;99.90;;;;;;5031571;28;20034;-69
2021/11/17 02:31:22;;;;;;;11.43;1.83;;;21.90;99.90;;;;;;5027754;28;20045;-68
2021/11/17 02:33:55;;;;;;;7.80;1.52;;;22.10;99.90;;;;;;5032218;28;20025;-68
2021/11/17 02:36:32;;;;;;;7.13;1.13;;;22.10;99.90;;;;;;5031769;28;20033;-69
2021/11/17 02:39:18;;;;;;;7.13;1.83;;;21.90;99.90;;;;;;5030976;28;20397;-69
2021/11/17 02:42:13;;;;;;;7.63;1.48;;;21.90;99.90;;;;;;5031479;28;20029;-68
2021/11/17 02:44:49;;;;;;;10.02;1.48;;;22.10;99.90;;;;;;5031077;28;20056;-68
2021/11/17 02:47:54;;;;;;;9.13;1.48;;;22.10;99.90;;;;;;5040762;28;20038;-68
2021/11/17 02:51:05;;;;;;;8.25;1.42;;;22.10;99.90;;;;;;5015559;28;20116;-68
2021/11/17 02:54:03;;;;;;;5.82;0.82;;;21.80;99.90;;;;;;5033787;28;20171;-67
2021/11/17 02:56:33;;;;;;;7.00;1.15;;;21.40;99.90;;;;;;5041419;28;20086;-68
2021/11/17 02:59:25;;;;;;;10.80;1.55;;;21.80;99.90;;;;;;5055715;28;20044;-68
2021/11/17 03:02:13;;;;;;;8.75;1.08;;;21.60;99.90;;;;;;5040674;28;20033;-68
2021/11/17 03:05:05;;;;;;;7.28;1.20;;;21.80;99.90;;;;;;5035202;28;20504;-68
2021/11/17 03:07:35;;;;;;;6.40;1.10;;;21.90;99.90;;;;;;5018719;28;20037;-68
2021/11/17 03:10:36;;;;;;;6.00;1.75;;;21.60;99.90;;;;;;5033826;28;20029;-68
2021/11/17 03:13:30;;;;;;;6.90;1.40;;;21.80;99.90;;;;;;5015678;28;20029;-68
2021/11/17 03:16:13;;;;;;;7.15;1.17;;;21.40;99.90;;;;;;5019331;28;20112;-68
2021/11/17 03:18:46;;;;;;;5.88;1.08;;;21.70;99.90;;;;;;5035218;28;20031;-68
2021/11/17 03:21:41;;;;;;;4.40;1.00;;;21.60;99.90;;;;;;5034493;28;20377;-69
2021/11/17 03:24:30;;;;;;;4.93;1.02;;;21.50;99.90;;;;;;5035107;28;20033;-69
2021/11/17 03:27:00;;;;;;;6.47;1.40;;;21.50;99.90;;;;;;5033268;28;20031;-69
2021/11/17 03:29:45;;;;;;;6.47;1.23;;;21.70;99.90;;;;;;5014346;28;20045;-68
2021/11/17 03:32:22;;;;;;;7.65;0.90;;;21.50;99.90;;;;;;5028300;28;20072;-68
2021/11/17 03:34:57;;;;;;;6.60;1.13;;;20.80;99.90;;;;;;5049990;28;20025;-68
2021/11/17 03:37:27;;;;;;;;;;;21.00;99.90;;;;;;5019135;28;20049;-68
2021/11/17 03:40:16;;;;;;;9.77;1.17;;;21.10;99.90;;;;;;5015157;28;19905;-68
2021/11/17 03:42:46;;;;;;;6.43;1.33;;;21.00;99.90;;;;;;5050533;28;20448;-69
2021/11/17 03:45:34;;;;;;;7.03;1.13;;;20.80;99.90;;;;;;5053005;28;20060;-69
2021/11/17 03:48:14;;;;;;;8.90;1.40;;;20.80;99.90;;;;;;5019517;28;20082;-68
2021/11/17 03:51:09;;;;;;;6.53;1.13;;;20.70;99.90;;;;;;5028614;28;20026;-69
2021/11/17 03:54:09;;;;;;;7.97;1.38;;;20.40;99.90;;;;;;5034880;28;20409;-68
2021/11/17 03:56:48;;;;;;;9.07;1.13;;;20.50;99.90;;;;;;5041864;28;20036;-68
2021/11/17 03:59:32;;;;;;;13.15;1.30;;;20.30;99.90;;;;;;5054239;28;20029;-68
2021/11/17 04:02:33;;;;;;;6.22;0.90;;;19.90;99.90;;;;;;5037297;28;20026;-68
2021/11/17 04:05:19;;;;;;;6.28;0.80;;;20.10;99.90;;;;;;5032890;28;20021;-69
2021/11/17 04:08:23;;;;;;;6.57;1.30;;;20.20;99.90;;;;;;5032696;28;20083;-69
2021/11/17 04:11:07;;;;;;;3.85;0.77;;;20.00;99.90;;;;;;5032215;28;20022;-68
2021/11/17 04:14:03;;;;;;;4.30;0.80;;;20.00;99.90;;;;;;5033881;28;20055;-69
2021/11/17 04:16:33;;;;;;;7.13;1.27;;;20.00;99.90;;;;;;5039997;28;20175;-68
2021/11/17 04:19:18;;;;;;;7.50;0.65;;;20.10;99.90;;;;;;5054141;28;20028;-68
2021/11/17 04:22:07;;;;;;;4.78;1.00;;;20.00;99.90;;;;;;5037677;28;20030;-68
2021/11/17 04:24:56;;;;;;;8.20;0.90;;;20.00;99.90;;;;;;5032664;28;20025;-68
2021/11/17 04:27:38;;;;;;;4.88;0.85;;;19.90;99.90;;;;;;5044204;28;20041;-68
2021/11/17 04:30:05;;;;;;;6.18;1.00;;;19.80;99.90;;;;;;5053907;28;20473;-68
2021/11/17 04:32:35;;;;;;;5.32;1.00;;;19.90;99.90;;;;;;5035213;28;20053;-69
2021/11/17 04:35:39;;;;;;;7.57;0.80;;;19.90;99.90;;;;;;5033943;28;20087;-69
2021/11/17 04:38:28;;;;;;;6.70;0.90;;;19.90;99.90;;;;;;5014161;28;20410;-69
2021/11/17 04:41:09;;;;;;;4.20;0.90;;;19.80;99.90;;;;;;5031408;28;20029;-68
2021/11/17 04:44:14;;;;;;;8.98;1.25;;;19.80;99.90;;;;;;5028431;28;20033;-69
2021/11/17 04:46:50;;;;;;;;;;;19.90;99.90;;;;;;5015301;28;20080;-69
2021/11/17 04:49:38;;;;;;;6.47;1.15;;;20.00;99.90;;;;;;5033525;28;19905;-68
2021/11/17 04:52:53;;;;;;;8.40;1.05;;;19.80;99.90;;;;;;5037540;28;20520;-69
2021/11/17 04:55:41;;;;;;;6.10;1.37;;;20.00;99.90;;;;;;5020331;28;20042;-68
2021/11/17 04:58:12;;;;;;;6.60;0.90;;;20.00;99.90;;;;;;5017874;28;20337;-69
2021/11/17 05:01:01;;;;;;;9.48;1.20;;;20.00;99.90;;;;;;5031923;28;20075;-68
2021/11/17 05:03:52;;;;;;;9.57;0.93;;;20.00;99.90;;;;;;5033121;28;20381;-68
2021/11/17 05:06:41;;;;;;;5.88;0.77;;;19.90;99.90;;;;;;5037844;28;20048;-69
2021/11/17 05:09:29;;;;;;;4.60;1.25;;;19.70;99.90;;;;;;5051235;28;20044;-68
2021/11/17 05:12:30;;;;;;;7.22;1.13;;;19.80;99.90;;;;;;5029614;28;20029;-68
2021/11/17 05:15:32;;;;;;;5.13;1.25;;;19.90;99.90;;;;;;5033263;28;20017;-68
2021/11/17 05:18:20;;;;;;;3.72;0.75;;;20.00;99.90;;;;;;5032208;28;20082;-70
2021/11/17 05:21:31;;;;;;;4.80;0.75;;;19.90;99.90;;;;;;5032609;28;20032;-69
2021/11/17 05:24:14;;;;;;;8.07;1.40;;;20.10;99.90;;;;;;5039843;28;20098;-68
2021/11/17 05:26:56;;;;;;;7.45;1.73;;;20.20;99.90;;;;;;5050166;28;20029;-69
2021/11/17 05:29:33;;;;;;;7.35;0.93;;;19.90;99.90;;;;;;5032268;28;20108;-69
2021/11/17 05:32:09;;;;;;;5.88;0.80;;;19.70;99.90;;;;;;5031965;28;20376;-69
2021/11/17 05:34:51;;;;;;;6.88;1.00;;;20.00;99.90;;;;;;5032836;28;20087;-68
2021/11/17 05:37:55;;;;;;;6.95;1.15;;;20.10;99.90;;;;;;5032383;28;20386;-69
2021/11/17 05:40:39;;;;;;;2.90;0.70;;;20.40;99.90;;;;;;5031537;28;20111;-69
2021/11/17 05:43:51;;;;;;;6.70;0.70;;;20.60;99.90;;;;;;5013110;28;20482;-69
2021/11/17 05:46:21;;;;;;;6.35;0.88;;;20.50;99.90;;;;;;5025456;28;20064;-68
2021/11/17 05:49:07;;;;;;;7.03;0.75;;;20.20;99.90;;;;;;5052602;28;20055;-69
2021/11/17 05:52:18;;;;;;;5.80;0.90;;;20.40;99.90;;;;;;5050001;28;20064;-69
2021/11/17 05:55:10;;;;;;;8.05;0.80;;;20.40;99.90;;;;;;5013215;28;20452;-69
2021/11/17 05:57:56;;;;;;;5.32;0.80;;;20.40;99.90;;;;;;5028693;28;20037;-69
2021/11/17 06:00:52;;;;;;;5.10;0.70;;;20.20;99.90;;;;;;5032488;28;20017;-69
2021/11/17 06:03:34;;;;;;;5.97;0.75;;;20.10;99.90;;;;;;5017112;28;20025;-69
2021/11/17 06:06:00;;;;;;;6.30;0.60;;;20.50;99.90;;;;;;5034136;28;20048;-68
2021/11/17 06:08:27;;;;;;;8.98;1.92;;;20.40;99.90;;;;;;5043545;28;20033;-70
2021/11/17 06:11:01;;;;;;;7.50;1.70;;;20.20;99.90;;;;;;5037931;28;20565;-71
2021/11/17 06:13:29;;;;;;;5.88;1.00;;;20.60;99.90;;;;;;5045666;28;20029;-70
2021/11/17 06:15:57;;;;;;;3.38;0.70;;;21.60;99.90;;;;;;5034091;28;20034;-68
2021/11/17 06:18:30;;;;;;;6.47;0.60;;;22.20;99.90;;;;;;5030784;28;20068;-69
2021/11/17 06:20:58;;;;;;;5.53;1.17;;;21.50;99.90;;;;;;5030025;28;20409;-68
2021/11/17 06:23:34;;;;;;;4.95;0.93;;;21.40;99.90;;;;;;5033536;28;20022;-68
2021/11/17 06:26:05;;;;;;;5.32;0.80;;;21.80;99.90;;;;;;5030344;28;20026;-68
2021/11/17 06:28:32;;;;;;;6.05;1.08;;;21.50;99.90;;;;;;5047198;28;20445;-68
2021/11/17 06:31:01;;;;;;;4.32;1.15;;;21.70;99.90;;;;;;5037345;28;20059;-68
2021/11/17 06:33:29;;;;;;;3.65;0.80;;;21.50;99.90;;;;;;5050680;28;20037;-69
2021/11/17 06:35:56;;;;;;;7.25;1.02;;;21.10;99.90;;;;;;5038104;28;20079;-69
2021/11/17 06:38:24;;;;;;;4.57;1.10;;;20.80;99.90;;;;;;5034684;28;20022;-69
2021/11/17 06:40:52;;;;;;;2.38;0.68;;;20.40;99.90;;;;;;5032860;28;20333;-69
2021/11/17 06:43:20;;;;;;;2.92;0.60;;;21.30;99.90;;;;;;5031818;28;20037;-69
2021/11/17 06:45:53;;;;;;;4.70;0.70;;;21.80;99.90;;;;;;5033943;28;20095;-71
2021/11/17 06:48:22;;;;;;;6.28;1.05;;;21.00;99.90;;;;;;5031593;28;20033;-68
2021/11/17 06:50:53;;;;;;;5.78;1.30;;;20.50;99.90;;;;;;5032938;28;20034;-68
2021/11/17 06:53:22;;;;;;;3.70;1.15;;;20.20;99.90;;;;;;5031575;28;20053;-69
2021/11/17 06:55:50;;;;;;;3.17;0.93;;;20.00;99.90;;;;;;5033088;28;20021;-68
2021/11/17 06:58:18;;;;;;;6.18;1.10;;;19.80;99.90;;;;;;5034071;28;20045;-69
2021/11/17 07:00:47;;;;;;;4.90;0.65;;;19.40;99.90;;;;;;5033326;28;20393;-68
2021/11/17 07:03:16;;;;;;;5.70;1.55;;;19.30;99.90;;;;;;5034553;28;20127;-68
2021/11/17 07:05:44;;;;;;;7.80;1.20;;;19.50;99.90;;;;;;5032875;28;20037;-69
2021/11/17 07:08:11;;;;;;;4.38;0.73;;;19.80;99.90;;;;;;5031688;28;20028;-69
2021/11/17 07:10:39;;;;;;;4.97;1.33;;;19.90;99.90;;;;;;5032379;28;20545;-68
2021/11/17 07:13:07;;;;;;;4.30;1.38;;;19.90;99.90;;;;;;5028986;28;20481;-69
2021/11/17 07:15:35;;;;;;;9.07;0.90;;;20.20;99.90;;;;;;5003343;28;20050;-68
2021/11/17 07:18:04;;;;;;;3.72;0.82;;;19.90;99.90;;;;;;5033623;28;20068;-69
2021/11/17 07:20:32;;;;;;;5.82;1.23;;;19.90;99.90;;;;;;5033160;28;20535;-67
2021/11/17 07:22:59;;;;;;;4.72;1.23;;;19.60;99.90;;;;;;5034096;28;20084;-68
2021/11/17 07:25:27;;;;;;;4.97;0.80;;;19.30;99.90;;;;;;5034636;28;20052;-68
2021/11/17 07:27:56;;;;;;;5.80;1.08;;;19.10;99.90;;;;;;5033804;28;20043;-67
2021/11/17 07:30:29;;;;;;;2.75;0.80;;;18.90;99.90;;;;;;5047486;28;20132;-68
2021/11/17 07:32:56;;;;;;;5.05;0.75;;;18.80;99.90;;;;;;5047803;28;20025;-68
2021/11/17 07:35:25;;;;;;;6.05;1.00;;;18.80;99.90;;;;;;5041893;28;20536;-68
2021/11/17 07:38:00;;;;;;;6.45;1.45;;;18.80;99.90;;;;;;5033319;28;20017;-69
2021/11/17 07:40:33;;;;;;;2.78;0.63;;;18.80;99.90;;;;;;5048534;28;20034;-67
2021/11/17 07:43:00;;;;;;;3.63;0.80;;;18.70;99.90;;;;;;5033623;28;20490;-67
2021/11/17 07:45:28;;;;;;;5.22;0.98;;;18.80;99.90;;;;;;5032418;28;20037;-67
2021/11/17 07:47:55;;;;;;;5.25;0.55;;;18.70;99.90;;;;;;5033709;28;20478;-67
2021/11/17 07:50:22;;;;;;;6.18;1.00;;;18.70;99.90;;;;;;5032888;28;20025;-67
2021/11/17 07:52:50;;;;;;;4.95;1.08;;;18.60;99.90;;;;;;5033652;28;20559;-67
2021/11/17 07:55:19;;;;;;;2.55;0.55;;;18.60;99.90;;;;;;5057322;28;20391;-68
2021/11/17 07:57:49;;;;;;;7.30;1.35;;;18.50;99.90;;;;;;5045366;28;20025;-67
2021/11/17 08:00:21;;;;;;;7.85;1.27;;;18.50;99.90;;;;;;5046335;28;20029;-67
2021/11/17 08:02:50;;;;;;;5.60;0.90;;;18.50;99.90;;;;;;5038614;28;20028;-67
2021/11/17 08:05:19;;;;;;;5.43;1.20;;;18.50;99.90;;;;;;5065385;28;20029;-67
2021/11/17 08:07:48;;;;;;;6.55;1.05;;;18.50;99.90;;;;;;5052255;28;20041;-68
2021/11/17 08:10:23;;;;;;;3.72;1.20;;;18.50;99.90;;;;;;5034734;28;20025;-66
2021/11/17 08:12:51;;;;;;;6.70;1.10;;;18.40;99.90;;;;;;5019158;28;20024;-67
2021/11/17 08:15:18;;;;;;;3.28;1.02;;;18.40;99.90;;;;;;5035256;28;20028;-67
2021/11/17 08:17:46;;;;;;;4.50;0.70;;;18.30;99.90;;;;;;5046397;28;20358;-68
2021/11/17 08:20:18;;;;;;;7.55;1.52;;;18.30;99.90;;;;;;5031534;28;20425;-67
2021/11/17 08:22:50;;;;;;;4.40;0.95;;;18.40;99.90;;;;;;5033352;28;20029;-68
2021/11/17 08:25:20;;;;;;;6.07;1.02;;;18.40;99.90;;;;;;5031768;28;20034;-67
2021/11/17 08:27:48;;;;;;;7.65;1.15;;;18.40;99.90;;;;;;5033422;28;20029;-68
2021/11/17 08:30:17;;;;;;;3.97;1.15;;;18.40;99.90;;;;;;5033182;28;20025;-67
2021/11/17 08:32:46;;;;;;;7.00;1.00;;;18.40;99.90;;;;;;5033906;28;20022;-67
2021/11/17 08:35:17;;;;;;;6.07;1.23;;;18.30;99.90;;;;;;5032895;28;20433;-67
2021/11/17 08:37:45;;;;;;;7.85;1.58;;;18.30;99.90;;;;;;5031625;28;20029;-68
2021/11/17 08:40:16;;;;;;;3.72;1.38;;;18.20;99.90;;;;;;5033233;28;20035;-67
2021/11/17 08:42:44;;;;;;;4.47;0.70;;;18.20;99.90;;;;;;5033546;28;20067;-68
2021/11/17 08:45:14;;;;;;;9.32;2.03;;;18.10;99.90;;;;;;5032581;28;20373;-68
2021/11/17 08:47:43;;;;;;;9.80;1.92;;;18.20;99.90;;;;;;5029487;28;20450;-68
2021/11/17 08:50:13;;;;;;;9.57;1.42;;;18.20;99.90;;;;;;5049404;28;20060;-68
2021/11/17 08:52:40;;;;;;;5.93;1.25;;;18.20;99.90;;;;;;5063255;28;20078;-65
2021/11/17 08:55:09;;;;;;;8.77;1.40;;;18.10;99.90;;;;;;5034042;28;20029;-66
2021/11/17 08:57:37;;;;;;;7.20;1.42;;;18.10;99.90;;;;;;5040959;28;20017;-69
2021/11/17 09:00:08;;;;;;;7.55;1.58;;;18.10;99.90;;;;;;5029636;28;20108;-69
2021/11/17 09:02:40;;;;;;;8.60;1.33;;;18.10;99.90;;;;;;5035351;28;20112;-69
2021/11/17 09:05:19;;;;;;;6.53;1.15;;;18.10;99.90;;;;;;5042956;28;20029;-68
2021/11/17 09:07:48;;;;;;;5.80;1.27;;;18.10;99.90;;;;;;5036258;28;20112;-68
2021/11/17 09:10:22;;;;;;;6.65;1.10;;;18.00;99.90;;;;;;5047458;28;20033;-67
2021/11/17 09:12:49;;;;;;;;;;;18.00;99.90;;;;;;5064016;28;20033;-68
2021/11/17 09:15:19;;;;;;;6.60;1.13;;;18.00;99.90;;;;;;5053154;28;19909;-67
2021/11/17 09:17:47;;;;;;;3.70;0.82;;;18.00;99.90;;;;;;5040173;28;20029;-68
2021/11/17 09:20:15;;;;;;;4.20;1.25;;;18.00;99.90;;;;;;5048065;28;20037;-68
2021/11/17 09:22:43;;;;;;;5.35;0.80;;;18.00;99.90;;;;;;5043518;28;20029;-68
2021/11/17 09:25:12;;;;;;;6.90;0.57;;;18.00;99.90;;;;;;5037771;28;20033;-68
2021/11/17 09:27:40;;;;;;;8.45;1.23;;;18.00;99.90;;;;;;5032683;28;20121;-68
2021/11/17 09:30:11;;;;;;;6.03;0.90;;;17.90;99.90;;;;;;5032590;28;20021;-68
2021/11/17 09:32:39;;;;;;;2.55;0.77;;;17.90;99.90;;;;;;5047385;28;20108;-68
2021/11/17 09:35:13;;;;;;;6.82;1.33;;;17.90;99.90;;;;;;5038876;28;20045;-66
2021/11/17 09:37:43;;;;;;;8.77;1.00;;;17.90;99.90;;;;;;5013015;28;20462;-66
2021/11/17 09:40:13;;;;;;;11.27;1.85;;;17.90;99.90;;;;;;5025533;28;20040;-67
2021/11/17 09:42:41;;;;;;;7.38;1.52;;;17.90;99.90;;;;;;5033998;28;20489;-66
2021/11/17 09:45:10;;;;;;;8.40;1.67;;;17.90;99.90;;;;;;5036434;28;20045;-67
2021/11/17 09:47:42;;;;;;;6.75;1.23;;;17.90;99.90;;;;;;5047024;28;20501;-66
2021/11/17 09:50:18;;;;;;;6.40;1.10;;;17.90;99.90;;;;;;5040043;28;20381;-66
2021/11/17 09:52:53;;;;;;;7.63;0.93;;;17.90;99.90;;;;;;5035987;28;20018;-67
2021/11/17 09:55:23;;;;;;;;;;;17.80;99.90;;;;;;5032518;28;20079;-67
2021/11/17 09:58:01;;;;;;;7.35;1.38;;;17.80;99.90;;;;;;5025307;28;19914;-67
2021/11/17 10:00:31;;;;;;;6.60;1.50;;;17.80;99.90;;;;;;5040866;28;20032;-67
2021/11/17 10:03:12;;;;;;;7.55;1.58;;;17.80;99.90;;;;;;5042334;28;20057;-67
2021/11/17 10:14:11;;;;;;;4.93;1.20;;;17.80;99.90;;;;;;5031730;28;20025;-67
2021/11/17 10:16:40;;;;;;;7.00;0.85;;;17.70;99.90;;;;;;5048318;28;20367;-67
2021/11/17 10:19:39;;;;;;;3.97;1.02;;;17.70;99.90;;;;;;5050147;28;20031;-67
2021/11/17 10:22:19;;;;;;;4.32;1.15;;;17.70;99.90;;;;;;5029446;28;20045;-67
2021/11/17 10:24:52;;;;;;;7.88;0.93;;;17.70;99.90;;;;;;5041168;28;20036;-67
2021/11/17 10:27:31;;;;;;;9.55;1.20;;;17.70;99.90;;;;;;5026961;28;20584;-67
2021/11/17 10:30:02;;;;;;;5.65;1.60;;;17.70;99.90;;;;;;5018292;28;20029;-67
2021/11/17 10:32:40;;;;;;;5.22;0.88;;;17.70;99.90;;;;;;5012360;28;20046;-67
2021/11/17 10:35:30;;;;;;;5.53;1.08;;;17.70;99.90;;;;;;5063420;28;20041;-67
2021/11/17 10:38:22;;;;;;;6.90;0.98;;;17.70;99.90;;;;;;5035907;28;20017;-67
2021/11/17 10:40:56;;;;;;;6.35;0.93;;;17.70;99.90;;;;;;5041675;28;20120;-67
2021/11/17 10:43:49;;;;;;;6.05;1.08;;;17.60;99.90;;;;;;5051532;28;20384;-67
2021/11/17 10:46:26;;;;;;;6.22;1.48;;;17.60;99.90;;;;;;5050518;28;20052;-67
2021/11/17 10:49:07;;;;;;;5.43;1.15;;;17.60;99.90;;;;;;5050989;28;20025;-66
2021/11/17 10:51:55;;;;;;;4.75;0.90;;;17.70;99.90;;;;;;5037419;28;20072;-68
2021/11/17 10:54:28;;;;;;;6.47;0.90;;;17.60;99.90;;;;;;5042084;28;20033;-66
2021/11/17 10:57:08;;;;;;;5.32;1.08;;;17.70;99.90;;;;;;5051296;28;20051;-66
2021/11/17 10:59:36;;;;;;;4.30;0.65;;;17.60;99.90;;;;;;5024918;28;20473;-66
2021/11/17 11:02:10;;;;;;;6.10;1.15;;;17.70;99.90;;;;;;5052848;28;20069;-67
2021/11/17 11:04:45;;;;;;;;;;;17.70;99.90;;;;;;5051633;28;20039;-66
2021/11/17 11:07:36;;;;;;;;;;;17.60;99.90;;;;;;5034057;28;20350;-67
2021/11/17 11:10:07;;;;;;;4.28;0.80;;;17.60;99.90;;;;;;5033821;28;20427;-67
2021/11/17 11:12:35;;;;;;;4.28;1.00;;;17.60;99.90;;;;;;5043691;28;20509;-67
2021/11/17 11:15:09;;;;;;;9.43;1.55;;;17.60;99.90;;;;;;5038436;28;20448;-68
2021/11/17 11:17:38;;;;;;;5.47;1.15;;;17.60;99.90;;;;;;5039674;28;20029;-67
2021/11/17 11:20:20;;;;;;;5.30;1.00;;;17.60;99.90;;;;;;5035008;28;20033;-67
2021/11/17 11:23:05;;;;;;;7.60;1.15;;;17.60;99.90;;;;;;5038833;28;20113;-67
2021/11/17 11:25:53;;;;;;;4.70;1.05;;;17.50;99.90;;;;;;5044165;28;20033;-67
2021/11/17 11:28:35;;;;;;;8.60;1.05;;;17.50;99.90;;;;;;5040014;28;20115;-68
2021/11/17 11:31:09;;;;;;;4.72;0.90;;;17.50;99.90;;;;;;5052534;28;20082;-68
2021/11/17 11:33:38;;;;;;;4.22;1.00;;;17.50;99.90;;;;;;5037005;28;20022;-68
2021/11/17 11:36:11;;;;;;;7.53;1.20;;;17.50;99.90;;;;;;5035013;28;20037;-67
2021/11/17 11:38:41;;;;;;;9.77;0.90;;;17.50;99.90;;;;;;5033721;28;20047;-68
2021/11/17 11:41:18;;;;;;;6.88;1.45;;;17.50;99.90;;;;;;5037047;28;20082;-67
2021/11/17 11:43:46;;;;;;;4.68;1.35;;;17.50;99.90;;;;;;5039119;28;20025;-68
2021/11/17 11:46:39;;;;;;;3.97;0.90;;;17.50;99.90;;;;;;5049830;28;20053;-68
2021/11/17 11:49:32;;;;;;;6.43;1.35;;;17.50;99.90;;;;;;5032645;28;20116;-68
2021/11/17 11:52:26;;;;;;;7.38;1.05;;;17.40;99.90;;;;;;5014776;28;20042;-68
2021/11/17 11:54:54;;;;;;;5.60;1.08;;;17.40;99.90;;;;;;5036794;28;20021;-67
2021/11/17 11:57:30;;;;;;;5.93;1.08;;;17.40;99.90;;;;;;5037652;28;20028;-67
2021/11/17 12:00:03;;;;;;;5.63;1.00;;;17.40;99.90;;;;;;5034364;28;20029;-67
2021/11/17 12:03:00;;;;;;;4.10;1.05;;;17.30;99.90;;;;;;5038970;28;20075;-67
2021/11/17 12:05:36;;;;;;;6.03;1.30;;;17.30;99.90;;;;;;5037740;28;20091;-67
2021/11/17 12:08:19;;;;;;;5.90;0.80;;;17.30;99.90;;;;;;5035539;28;20080;-68
2021/11/17 12:11:12;;;;;;;6.10;1.45;;;17.30;99.90;;;;;;5040710;28;20022;-67
2021/11/17 12:13:55;;;;;;;3.08;0.82;;;17.30;99.90;;;;;;5024626;28;20560;-68
2021/11/17 12:16:34;;;;;;;8.98;1.45;;;17.30;99.90;;;;;;5036639;28;20018;-68
2021/11/17 12:19:06;;;;;;;8.20;1.52;;;17.30;99.90;;;;;;5035704;28;20024;-67
2021/11/17 12:21:42;;;;;;;5.10;0.93;;;17.30;99.90;;;;;;5043078;28;20785;-68
2021/11/17 12:24:14;;;;;;;5.50;1.67;;;17.30;99.90;;;;;;5049583;28;20547;-67
2021/11/17 12:27:05;;;;;;;7.35;1.00;;;17.30;99.90;;;;;;5046086;28;20032;-68
2021/11/17 12:29:44;;;;;;;6.15;1.15;;;17.20;99.90;;;;;;5042287;28;20179;-68
2021/11/17 12:32:20;;;;;;;8.60;1.30;;;17.20;99.90;;;;;;5035148;28;21076;-68
2021/11/17 12:35:01;;;;;;;7.25;1.30;;;17.20;99.90;;;;;;5034090;28;20109;-68
2021/11/17 12:37:37;;;;;;;8.75;1.27;;;17.20;99.90;;;;;;5032245;28;20060;-67
2021/11/17 12:40:31;;;;;;;6.00;1.15;;;17.20;99.90;;;;;;5034362;28;20461;-68
2021/11/17 12:43:01;;;;;;;8.80;1.23;;;17.20;99.90;;;;;;5049386;28;20488;-68
2021/11/17 12:45:37;;;;;;;8.43;1.73;;;17.10;99.90;;;;;;5045675;28;20041;-68
2021/11/17 12:48:27;;;;;;;13.02;1.77;;;17.10;99.90;;;;;;5033594;28;20036;-68
2021/11/17 12:51:03;;;;;;;6.10;1.00;;;17.20;99.90;;;;;;5042176;28;20026;-67
2021/11/17 12:53:40;;;;;;;15.75;1.75;;;17.20;99.90;;;;;;5047289;28;20393;-68
2021/11/17 12:56:20;;;;;;;7.00;1.15;;;17.10;99.90;;;;;;5042449;28;20421;-68
2021/11/17 12:59:16;;;;;;;8.90;1.50;;;17.20;99.90;;;;;;5040290;28;20036;-68
2021/11/17 13:01:51;;;;;;;6.65;1.13;;;17.20;99.90;;;;;;5035761;28;20025;-68
2021/11/17 13:04:18;;;;;;;13.90;1.98;;;17.20;99.90;;;;;;5036319;28;20520;-68
2021/11/17 13:06:45;;;;;;;7.90;1.67;;;17.30;99.90;;;;;;5033754;28;20034;-68
2021/11/17 13:09:20;;;;;;;10.32;1.00;;;17.30;99.90;;;;;;5038405;28;20075;-68
2021/11/17 13:11:56;;;;;;;3.30;1.10;;;17.40;99.90;;;;;;5037908;28;20507;-68
2021/11/17 13:14:31;;;;;;;7.45;1.27;;;17.40;99.90;;;;;;5046825;28;20547;-67
2021/11/17 13:17:04;;;;;;;5.13;1.02;;;17.40;99.90;;;;;;5035073;28;20021;-68
2021/11/17 13:19:33;;;;;;;7.07;0.95;;;17.40;99.90;;;;;;5041584;28;20385;-68
2021/11/17 13:22:27;;;;;;;6.50;1.20;;;17.30;99.90;;;;;;5043458;28;20061;-67
2021/11/17 13:25:21;;;;;;;4.72;0.82;;;17.40;99.90;;;;;;5035656;28;20052;-66
2021/11/17 13:28:09;;;;;;;7.15;1.15;;;17.40;99.90;;;;;;5038357;28;20033;-66
2021/11/17 13:30:50;;;;;;;7.78;1.80;;;17.40;99.90;;;;;;5036921;28;20399;-67
2021/11/17 13:33:27;;;;;;;8.73;1.90;;;17.40;99.90;;;;;;5040497;28;20022;-66
2021/11/17 13:36:11;;;;;;;7.43;1.00;;;17.40;99.90;;;;;;5036309;28;20025;-67
2021/11/17 13:38:57;;;;;;;3.72;1.38;;;17.40;99.90;;;;;;5024546;28;20100;-67
2021/11/17 13:41:25;;;;;;;6.43;1.30;;;17.30;99.90;;;;;;5038361;28;20029;-67
2021/11/17 13:43:52;;;;;;;5.47;1.60;;;17.40;99.90;;;;;;5033242;28;20036;-67
2021/11/17 13:46:20;;;;;;;5.47;0.90;;;17.40;99.90;;;;;;5043052;28;20067;-67
2021/11/17 13:48:50;;;;;;;5.38;1.38;;;17.30;99.90;;;;;;5048483;28;20040;-67
2021/11/17 13:51:21;;;;;;;5.38;1.10;;;17.30;99.90;;;;;;5033378;28;20054;-66
2021/11/17 13:53:49;;;;;;;6.50;1.83;;;17.30;99.90;;;;;;5041324;28;20022;-66
2021/11/17 13:56:26;;;;;;;8.07;1.45;;;17.30;99.90;;;;;;5034138;28;20025;-66
2021/11/17 13:58:55;;;;;;;5.10;1.00;;;17.30;99.90;;;;;;5015432;28;20037;-66
2021/11/17 14:01:23;;;;;;;4.25;0.90;;;17.20;99.90;;;;;;5033141;28;20087;-67
2021/11/17 14:03:51;;;;;;;4.95;0.98;;;17.30;99.90;;;;;;5031732;28;20537;-67
2021/11/17 14:06:22;;;;;;;14.10;2.03;;;17.30;99.90;;;;;;5028929;28;20037;-67
2021/11/17 14:08:50;;;;;;;6.38;1.10;;;17.20;99.90;;;;;;5039909;28;20029;-67
2021/11/17 14:11:18;;;;;;;6.57;0.98;;;17.30;99.90;;;;;;5056006;28;20022;-67
2021/11/17 14:13:47;;;;;;;9.98;0.80;;;17.30;99.90;;;;;;5039035;28;20389;-66
2021/11/17 14:16:17;;;;;;;10.10;1.77;;;17.30;99.90;;;;;;5035606;28;20523;-67
2021/11/17 14:18:45;;;;;;;6.38;1.50;;;17.30;99.90;;;;;;5032960;28;20021;-66
2021/11/17 14:21:12;;;;;;;6.40;1.35;;;17.20;99.90;;;;;;5048824;28;20022;-66
2021/11/17 14:23:39;;;;;;;7.25;1.33;;;17.20;99.90;;;;;;5040163;28;20425;-66
2021/11/17 14:26:11;;;;;;;7.80;1.38;;;17.30;99.90;;;;;;5045803;28;20086;-66
2021/11/17 14:28:45;;;;;;;6.75;1.17;;;17.30;99.90;;;;;;5032948;28;20030;-66
2021/11/17 14:31:24;;;;;;;3.88;1.00;;;17.20;99.90;;;;;;5035259;28;20105;-66
2021/11/17 14:33:58;;;;;;;7.50;1.60;;;17.20;99.90;;;;;;5042010;28;20124;-66
2021/11/17 14:36:30;;;;;;;8.75;1.20;;;17.20;99.90;;;;;;5031869;28;20540;-67
2021/11/17 14:39:01;;;;;;;5.53;1.05;;;17.20;99.90;;;;;;5038906;28;20389;-67
2021/11/17 14:41:29;;;;;;;5.97;0.80;;;17.20;99.90;;;;;;5056304;28;20044;-67
2021/11/17 14:43:56;;;;;;;3.55;1.10;;;17.20;99.90;;;;;;5031692;28;20033;-67
2021/11/17 14:46:24;;;;;;;8.02;0.90;;;17.20;99.90;;;;;;5042156;28;20072;-67
2021/11/17 14:48:51;;;;;;;8.20;1.95;;;17.20;99.90;;;;;;5038108;28;20056;-67
2021/11/17 14:51:19;;;;;;;11.18;1.48;;;17.20;99.90;;;;;;5037420;28;20025;-67
2021/11/17 14:53:49;;;;;;;4.78;0.90;;;17.20;99.90;;;;;;5040769;28;20044;-67
2021/11/17 14:56:17;;;;;;;5.65;1.15;;;17.20;99.90;;;;;;5038518;28;20102;-67
2021/11/17 14:58:45;;;;;;;8.63;1.35;;;17.20;99.90;;;;;;5044444;28;20022;-67
2021/11/17 15:01:17;;;;;;;4.03;1.00;;;17.20;99.90;;;;;;5040704;28;20021;-68
2021/11/17 15:03:46;;;;;;;7.05;1.58;;;17.10;99.90;;;;;;5038229;28;20024;-67
2021/11/17 15:06:15;;;;;;;7.65;1.67;;;17.10;99.90;;;;;;5035842;28;20033;-67
2021/11/17 15:08:43;;;;;;;8.77;1.45;;;17.10;99.90;;;;;;5035069;28;20025;-67
2021/11/17 15:11:11;;;;;;;7.10;0.80;;;17.10;99.90;;;;;;5038865;28;20493;-67
2021/11/17 15:13:38;;;;;;;4.47;1.45;;;17.20;99.90;;;;;;5045065;28;20052;-67
2021/11/17 15:16:09;;;;;;;8.23;1.27;;;17.10;99.90;;;;;;5037780;28;20021;-67
2021/11/17 15:18:43;;;;;;;8.23;1.33;;;17.10;99.90;;;;;;5031787;28;20013;-68
2021/11/17 15:21:16;;;;;;;10.35;2.25;;;17.10;99.90;;;;;;5039301;28;20033;-68
2021/11/17 15:23:45;;;;;;;7.18;1.17;;;17.10;99.90;;;;;;5037848;28;20034;-68
2021/11/17 15:26:16;;;;;;;4.53;1.25;;;17.00;99.90;;;;;;5042134;28;20037;-68
2021/11/17 15:28:47;;;;;;;7.15;0.82;;;16.90;99.90;;;;;;5035206;28;20032;-68
2021/11/17 15:31:19;;;;;;;5.82;1.30;;;16.90;99.90;;;;;;5036298;28;20105;-68
2021/11/17 15:33:47;;;;;;;4.82;1.25;;;16.80;99.90;;;;;;5041571;28;20025;-68
2021/11/17 15:36:16;;;;;;;6.95;2.40;;;16.80;99.90;;;;;;5059104;28;20043;-67
2021/11/17 15:38:46;;;;;;;8.43;1.42;;;16.70;99.90;;;;;;5036771;28;20029;-68
2021/11/17 15:41:17;;;;;;;7.10;1.52;;;16.70;99.90;;;;;;5041760;28;20063;-67
2021/11/17 15:43:47;;;;;;;8.60;1.45;;;16.60;99.90;;;;;;5040015;28;20028;-67
2021/11/17 15:46:15;;;;;;;5.65;0.68;;;16.60;99.90;;;;;;5040320;28;20056;-67
2021/11/17 15:48:42;;;;;;;6.35;1.23;;;16.50;99.90;;;;;;5049600;28;20044;-67
2021/11/17 15:51:18;;;;;;;4.35;1.27;;;16.50;99.90;;;;;;5040814;28;20126;-67
2021/11/17 15:53:47;;;;;;;3.25;1.38;;;16.40;99.90;;;;;;5037958;28;20187;-68
2021/11/17 15:56:16;;;;;;;4.25;1.02;;;16.30;99.90;;;;;;5041010;28;20108;-67
2021/11/17 15:58:43;;;;;;;7.45;1.23;;;16.30;99.90;;;;;;5039379;28;20025;-68
2021/11/17 16:01:17;;;;;;;4.22;1.30;;;16.30;99.90;;;;;;5039412;28;20021;-67
2021/11/17 16:03:49;;;;;;;8.82;1.08;;;16.30;99.90;;;;;;5043908;28;20028;-68
2021/11/17 16:06:17;;;;;;;4.22;1.00;;;16.20;99.90;;;;;;5040363;28;20065;-68
2021/11/17 16:08:44;;;;;;;4.03;1.63;;;16.20;99.90;;;;;;5044445;28;20033;-68